Gregg, Texas
Current Conditions -  °F | °C
As of 11:35 PM on Sunday 19 Oct 2014 (Local Time) from KEDC Reporting Station
Overcast Overcast  
Wind Chill: 64°   Ceiling: 4200
Heat Index: 64°   Visibility: 10mi
Dew Point: 61°   Wind: 0mph
Humidity: 88%   Direction: NA
Pressure: 30.05"   Gusts: NA
Location:  30.352°N, 97.5205°W
Report Text: KEDC 200435Z AUTO 00000KT 10SM FEW033 BKN042 OVC060 18/16 A3005 RMK AO2
Loading
Personal Weather Stations






























Interactive Weather Map
Tropical Storm Tracking
New forecast layout! Learn more

10-Day Weather Forecast

Advertisements
Track Severe Weather on mobile